createdAt,value
2023-06-29T00:00:24.167Z,15.89
2023-06-29T00:02:51.241Z,15.89
2023-06-29T00:05:19.779Z,15.88
2023-06-29T00:07:46.498Z,15.84
2023-06-29T00:10:17.211Z,15.79
2023-06-29T00:12:43.990Z,15.73
2023-06-29T00:15:11.095Z,15.70
2023-06-29T00:17:38.101Z,15.69
2023-06-29T00:20:10.773Z,15.64
2023-06-29T00:22:41.702Z,15.59
2023-06-29T00:25:11.907Z,15.54
2023-06-29T00:27:38.647Z,15.52
2023-06-29T00:30:06.074Z,15.52
2023-06-29T00:32:32.889Z,15.49
2023-06-29T00:34:59.801Z,15.48
2023-06-29T00:37:26.458Z,15.46
2023-06-29T00:39:53.097Z,15.47
2023-06-29T00:42:19.812Z,15.39
2023-06-29T00:44:48.055Z,15.33
2023-06-29T00:47:15.093Z,15.32
2023-06-29T00:49:42.552Z,15.30
2023-06-29T00:52:09.295Z,15.25
2023-06-29T00:54:36.361Z,15.22
2023-06-29T00:57:03.196Z,15.22
2023-06-29T00:59:29.945Z,15.22
2023-06-29T01:01:56.908Z,15.23
2023-06-29T01:04:27.216Z,15.27
2023-06-29T01:07:07.390Z,15.27
2023-06-29T01:09:36.161Z,15.27
2023-06-29T01:12:04.619Z,15.25
2023-06-29T01:14:34.397Z,15.23
2023-06-29T01:17:03.452Z,15.19
2023-06-29T01:19:32.698Z,15.14
2023-06-29T01:22:04.645Z,15.14
2023-06-29T01:24:40.159Z,15.11
2023-06-29T01:27:13.798Z,15.07
2023-06-29T01:29:40.685Z,15.04
2023-06-29T01:32:08.579Z,15.03
2023-06-29T01:34:37.378Z,15.03
2023-06-29T01:37:08.176Z,15.02
2023-06-29T01:39:51.117Z,15.02
2023-06-29T01:42:21.027Z,15.01
2023-06-29T01:44:49.233Z,14.95
2023-06-29T01:47:18.325Z,14.94
2023-06-29T01:49:45.508Z,14.92
2023-06-29T01:52:12.517Z,14.93
2023-06-29T01:54:39.291Z,14.94
2023-06-29T01:57:06.998Z,14.95
2023-06-29T01:59:33.959Z,14.89
2023-06-29T02:02:01.118Z,14.87
2023-06-29T02:04:27.796Z,14.82
2023-06-29T02:06:54.617Z,14.80
2023-06-29T02:09:21.457Z,14.76
2023-06-29T02:11:48.120Z,14.73
2023-06-29T02:14:14.773Z,14.71
2023-06-29T02:16:41.538Z,14.69
2023-06-29T02:19:08.202Z,14.64
2023-06-29T02:21:34.862Z,14.61
2023-06-29T02:24:01.605Z,14.57
2023-06-29T02:26:30.047Z,14.55
2023-06-29T02:28:56.810Z,14.54
2023-06-29T02:31:23.537Z,14.52
2023-06-29T02:33:50.633Z,14.52
2023-06-29T02:36:19.228Z,14.55
2023-06-29T02:38:45.862Z,14.49
2023-06-29T02:41:12.558Z,14.43
2023-06-29T02:43:39.327Z,14.42
2023-06-29T02:46:05.984Z,14.36
2023-06-29T02:48:41.805Z,14.27
2023-06-29T02:51:08.603Z,14.25
2023-06-29T02:53:35.245Z,14.22
2023-06-29T02:56:01.965Z,14.24
2023-06-29T02:58:28.631Z,14.23
2023-06-29T03:00:55.325Z,14.19
2023-06-29T03:03:22.101Z,14.19
2023-06-29T03:05:48.860Z,14.15
2023-06-29T03:08:15.570Z,14.11
2023-06-29T03:10:42.266Z,14.03
2023-06-29T03:13:10.180Z,13.98
2023-06-29T03:15:37.137Z,13.98
2023-06-29T03:18:03.941Z,13.98
2023-06-29T03:20:30.636Z,13.94
2023-06-29T03:22:57.299Z,13.91
2023-06-29T03:25:23.934Z,13.91
2023-06-29T03:27:50.622Z,13.88
2023-06-29T03:30:17.347Z,13.87
2023-06-29T03:32:44.006Z,13.82
2023-06-29T03:35:10.763Z,13.82
2023-06-29T03:37:37.522Z,13.81
2023-06-29T03:40:04.483Z,13.81
2023-06-29T03:42:31.179Z,13.76
2023-06-29T03:44:57.876Z,13.70
2023-06-29T03:47:24.712Z,13.68
2023-06-29T03:49:51.573Z,13.67
2023-06-29T03:52:18.379Z,13.59
2023-06-29T03:54:45.120Z,13.52
2023-06-29T03:57:11.944Z,13.50
2023-06-29T03:59:38.625Z,13.43
2023-06-29T04:02:05.472Z,13.37
2023-06-29T04:04:32.462Z,13.33
2023-06-29T04:06:59.228Z,13.29
2023-06-29T04:09:25.956Z,13.29
2023-06-29T04:11:53.668Z,13.25
2023-06-29T04:14:20.353Z,13.26
2023-06-29T04:16:47.121Z,13.26
2023-06-29T04:19:15.373Z,13.27
2023-06-29T04:21:43.676Z,13.26
2023-06-29T04:24:10.312Z,13.25
2023-06-29T04:26:39.895Z,13.28
2023-06-29T04:29:09.727Z,13.27
2023-06-29T04:31:36.498Z,13.27
2023-06-29T04:34:04.292Z,13.21
2023-06-29T04:36:31.649Z,13.12
2023-06-29T04:38:58.388Z,13.09
2023-06-29T04:41:32.569Z,13.07
2023-06-29T04:44:04.708Z,13.04
2023-06-29T04:46:33.667Z,13.02
2023-06-29T04:49:06.396Z,13.01
2023-06-29T04:51:39.351Z,13.01
2023-06-29T04:54:08.836Z,12.98
2023-06-29T04:56:35.540Z,12.93
2023-06-29T04:59:02.264Z,12.89
2023-06-29T05:01:28.984Z,12.89
2023-06-29T05:03:55.845Z,12.90
2023-06-29T05:06:22.493Z,12.90
2023-06-29T05:08:49.422Z,12.91
2023-06-29T05:11:16.201Z,12.92
2023-06-29T05:13:42.850Z,12.92
2023-06-29T05:16:10.663Z,12.93
2023-06-29T05:18:38.355Z,12.94
2023-06-29T05:21:05.435Z,12.92
2023-06-29T05:23:32.724Z,12.89
2023-06-29T05:26:00.316Z,12.89
2023-06-29T05:28:27.172Z,12.86
2023-06-29T05:30:54.087Z,12.88
2023-06-29T05:33:20.839Z,12.87
2023-06-29T05:35:49.621Z,12.90
2023-06-29T05:38:16.315Z,12.91
2023-06-29T05:40:43.407Z,12.94
2023-06-29T05:43:10.460Z,12.98
2023-06-29T05:45:37.718Z,13.03
2023-06-29T05:48:04.636Z,13.12
2023-06-29T05:50:31.355Z,13.22
2023-06-29T05:52:57.989Z,13.27
2023-06-29T05:55:25.272Z,13.29
2023-06-29T05:57:55.149Z,13.27
2023-06-29T06:00:21.974Z,13.29
2023-06-29T06:02:48.909Z,13.39
2023-06-29T06:05:15.754Z,13.43
2023-06-29T06:07:42.661Z,13.55
2023-06-29T06:10:09.686Z,13.72
2023-06-29T06:12:36.428Z,13.91
2023-06-29T06:15:03.268Z,14.10
2023-06-29T06:17:29.913Z,14.26
2023-06-29T06:19:56.862Z,14.38
2023-06-29T06:22:23.718Z,14.45
2023-06-29T06:24:50.515Z,14.49
2023-06-29T06:27:17.201Z,14.57
2023-06-29T06:29:45.282Z,14.54
2023-06-29T06:32:12.189Z,14.54
2023-06-29T06:34:39.022Z,14.59
2023-06-29T06:37:07.320Z,14.70
2023-06-29T06:39:33.985Z,14.75
2023-06-29T06:42:01.218Z,14.78
2023-06-29T06:44:28.094Z,14.78
2023-06-29T06:46:55.001Z,14.78
2023-06-29T06:49:22.863Z,14.88
2023-06-29T06:51:50.407Z,15.01
2023-06-29T06:54:20.302Z,15.07
2023-06-29T06:56:48.320Z,15.20
2023-06-29T06:59:15.733Z,15.33
2023-06-29T07:01:42.867Z,15.38
2023-06-29T07:04:09.669Z,15.34
2023-06-29T07:06:36.414Z,15.33
2023-06-29T07:09:04.811Z,15.29
2023-06-29T07:11:31.699Z,15.22
2023-06-29T07:13:58.404Z,15.27
2023-06-29T07:16:26.536Z,15.28
2023-06-29T07:21:38.198Z,15.50
2023-06-29T07:24:08.060Z,15.62
2023-06-29T07:26:35.928Z,15.77
2023-06-29T07:29:05.209Z,15.93
2023-06-29T07:31:32.103Z,16.10
2023-06-29T07:33:58.989Z,16.39
2023-06-29T07:36:27.719Z,16.73
2023-06-29T07:38:54.528Z,17.00
2023-06-29T07:41:22.241Z,17.19
2023-06-29T07:43:56.837Z,17.49
2023-06-29T07:46:24.564Z,17.79
2023-06-29T07:48:52.578Z,18.18
2023-06-29T07:51:19.326Z,18.69
2023-06-29T07:53:46.474Z,19.22
2023-06-29T07:56:13.348Z,19.69
2023-06-29T07:58:40.514Z,20.29
2023-06-29T08:01:07.462Z,20.83
2023-06-29T08:03:44.015Z,21.36
2023-06-29T08:08:48.304Z,22.41
2023-06-29T08:11:18.035Z,22.83
2023-06-29T08:13:44.781Z,23.20
2023-06-29T08:16:11.677Z,23.53
2023-06-29T08:18:39.176Z,23.71
2023-06-29T08:21:06.018Z,24.08
2023-06-29T08:23:33.895Z,24.45
2023-06-29T08:26:00.693Z,24.85
2023-06-29T08:28:27.462Z,25.06
2023-06-29T08:30:54.211Z,25.17
2023-06-29T08:33:21.414Z,25.28
2023-06-29T08:35:48.254Z,25.30
2023-06-29T08:38:14.903Z,25.54
2023-06-29T08:40:45.975Z,25.82
2023-06-29T08:43:16.905Z,26.14
2023-06-29T08:45:44.150Z,26.27
2023-06-29T08:48:13.975Z,26.47
2023-06-29T08:50:46.793Z,26.49
2023-06-29T08:53:15.002Z,25.99
2023-06-29T08:55:43.083Z,25.66
2023-06-29T08:58:10.086Z,25.05
2023-06-29T09:00:38.765Z,24.74
2023-06-29T09:03:06.897Z,24.25
2023-06-29T09:05:36.206Z,23.27
2023-06-29T09:08:03.649Z,22.76
2023-06-29T09:10:30.476Z,23.49
2023-06-29T09:12:57.168Z,23.81
2023-06-29T09:15:27.176Z,23.77
2023-06-29T09:17:57.426Z,23.58
2023-06-29T09:20:26.272Z,22.89
2023-06-29T09:22:53.312Z,22.27
2023-06-29T09:25:33.161Z,22.80
2023-06-29T09:28:03.145Z,23.45
2023-06-29T09:30:36.528Z,22.99
2023-06-29T09:33:08.830Z,22.97
2023-06-29T09:35:37.738Z,23.01
2023-06-29T09:38:04.466Z,23.05
2023-06-29T09:40:31.426Z,22.57
2023-06-29T09:43:02.676Z,22.03
2023-06-29T09:45:31.841Z,21.35
2023-06-29T09:50:28.772Z,20.26
2023-06-29T09:52:56.614Z,19.90
2023-06-29T09:55:31.066Z,19.65
2023-06-29T09:57:59.294Z,19.48
2023-06-29T10:00:28.968Z,19.39
2023-06-29T10:02:57.163Z,19.37
2023-06-29T10:05:24.099Z,19.34
2023-06-29T10:07:54.475Z,19.49
2023-06-29T10:10:24.891Z,19.67
2023-06-29T10:12:56.623Z,19.79
2023-06-29T10:15:26.169Z,19.81
2023-06-29T10:18:28.105Z,20.09
2023-06-29T10:20:54.913Z,20.37
2023-06-29T10:23:26.813Z,20.46
2023-06-29T10:25:54.495Z,20.26
2023-06-29T10:28:22.302Z,20.05
2023-06-29T10:30:52.025Z,19.85
2023-06-29T10:33:23.839Z,19.64
2023-06-29T10:36:03.826Z,19.42
2023-06-29T10:38:34.657Z,19.39
2023-06-29T10:41:01.894Z,19.37
2023-06-29T10:43:29.257Z,19.54
2023-06-29T10:45:55.998Z,19.76
2023-06-29T10:48:43.110Z,19.97
2023-06-29T10:51:09.980Z,19.95
2023-06-29T10:53:36.800Z,19.78
2023-06-29T10:56:03.654Z,19.60
2023-06-29T10:58:54.271Z,19.39
2023-06-29T11:01:21.650Z,19.34
2023-06-29T11:03:48.586Z,19.55
2023-06-29T11:09:13.173Z,19.88
2023-06-29T11:11:41.067Z,19.82
2023-06-29T11:14:07.839Z,19.91
2023-06-29T11:16:35.363Z,20.22
2023-06-29T11:19:03.769Z,20.47
2023-06-29T11:21:30.477Z,20.62
2023-06-29T11:23:57.297Z,20.84
2023-06-29T11:26:24.804Z,20.99
2023-06-29T11:28:52.660Z,21.20
2023-06-29T11:31:21.201Z,21.38
2023-06-29T11:33:49.309Z,21.43
2023-06-29T11:36:16.472Z,21.49
2023-06-29T11:38:43.309Z,21.55
2023-06-29T11:41:10.417Z,21.59
2023-06-29T11:43:37.426Z,21.59
2023-06-29T11:46:04.338Z,21.66
2023-06-29T11:48:31.475Z,21.84
2023-06-29T11:51:02.058Z,22.02
2023-06-29T11:53:29.554Z,22.15
2023-06-29T11:55:57.054Z,22.21
2023-06-29T11:58:23.885Z,22.14
2023-06-29T12:00:58.103Z,22.01
2023-06-29T12:03:25.473Z,21.69
2023-06-29T12:05:53.811Z,21.43
2023-06-29T12:08:21.746Z,21.13
2023-06-29T12:10:48.614Z,20.88
2023-06-29T12:13:15.400Z,20.87
2023-06-29T12:18:16.901Z,21.10
2023-06-29T12:20:46.537Z,21.29
2023-06-29T12:23:15.476Z,21.43
2023-06-29T12:25:51.390Z,21.59
2023-06-29T12:28:18.186Z,21.72
2023-06-29T12:30:45.360Z,21.94
2023-06-29T12:33:14.301Z,21.93
2023-06-29T12:35:41.662Z,21.85
2023-06-29T12:38:12.700Z,21.62
2023-06-29T12:40:39.513Z,21.36
2023-06-29T12:43:06.309Z,21.13
2023-06-29T12:45:33.033Z,20.93
2023-06-29T12:47:59.775Z,20.67
2023-06-29T12:50:26.562Z,20.61
2023-06-29T12:52:53.830Z,20.70
2023-06-29T12:55:20.800Z,20.97
2023-06-29T12:57:47.496Z,21.47
2023-06-29T13:00:14.718Z,21.88
2023-06-29T13:02:41.757Z,22.20
2023-06-29T13:05:09.356Z,22.36
2023-06-29T13:07:37.203Z,22.29
2023-06-29T13:10:04.953Z,22.05
2023-06-29T13:12:31.889Z,21.96
2023-06-29T13:15:01.856Z,21.80
2023-06-29T13:17:28.586Z,21.54
2023-06-29T13:19:55.314Z,21.17
2023-06-29T13:22:24.180Z,20.84
2023-06-29T13:24:51.069Z,20.70
2023-06-29T13:27:18.040Z,20.62
2023-06-29T13:29:44.715Z,20.51
2023-06-29T13:32:11.680Z,20.51
2023-06-29T13:34:38.577Z,20.49
2023-06-29T13:37:05.650Z,20.52
2023-06-29T13:39:32.434Z,20.60
2023-06-29T13:41:59.187Z,20.78
2023-06-29T13:44:25.827Z,20.90
2023-06-29T13:46:52.514Z,20.91
2023-06-29T13:49:19.268Z,21.02
2023-06-29T13:51:47.114Z,21.16
2023-06-29T13:54:16.763Z,21.32
2023-06-29T13:56:43.812Z,21.42
2023-06-29T13:59:10.857Z,21.44
2023-06-29T14:01:39.937Z,21.48
2023-06-29T14:04:08.440Z,21.38
2023-06-29T14:06:40.794Z,21.36
2023-06-29T14:09:09.525Z,21.36
2023-06-29T14:11:36.550Z,21.31
2023-06-29T14:14:03.556Z,21.13
2023-06-29T14:16:30.586Z,20.94
2023-06-29T14:18:58.291Z,20.81
2023-06-29T14:21:25.231Z,20.66
2023-06-29T14:23:54.955Z,20.50
2023-06-29T14:26:22.372Z,20.40
2023-06-29T14:28:49.143Z,20.38
2023-06-29T14:31:18.038Z,20.21
2023-06-29T14:33:45.274Z,20.02
2023-06-29T14:36:12.222Z,19.87
2023-06-29T14:38:38.995Z,19.92
2023-06-29T14:41:05.696Z,19.97
2023-06-29T14:43:32.454Z,20.06
2023-06-29T14:45:59.347Z,20.11
2023-06-29T14:48:27.021Z,20.15
2023-06-29T14:50:54.032Z,20.18
2023-06-29T14:53:24.407Z,20.21
2023-06-29T14:56:04.102Z,20.24
2023-06-29T14:58:31.244Z,20.26
2023-06-29T15:00:58.194Z,20.30
2023-06-29T15:03:25.052Z,20.28
2023-06-29T15:05:51.779Z,20.22
2023-06-29T15:08:18.431Z,20.26
2023-06-29T15:10:45.182Z,20.34
2023-06-29T15:13:11.934Z,20.53
2023-06-29T15:15:38.588Z,20.74
2023-06-29T15:18:06.175Z,20.91
2023-06-29T15:20:32.910Z,21.06
2023-06-29T15:22:59.549Z,21.07
2023-06-29T15:25:26.271Z,21.12
2023-06-29T15:27:53.160Z,21.20
2023-06-29T15:30:20.181Z,21.26
2023-06-29T15:32:47.000Z,21.29
2023-06-29T15:35:13.737Z,21.29
2023-06-29T15:37:40.499Z,21.18
2023-06-29T15:40:08.225Z,21.08
2023-06-29T15:42:35.022Z,20.86
2023-06-29T15:45:02.801Z,20.81
2023-06-29T15:47:29.577Z,20.75
2023-06-29T15:49:56.920Z,20.69
2023-06-29T15:52:23.708Z,20.63
2023-06-29T15:54:50.417Z,20.56
2023-06-29T15:57:17.085Z,20.47
2023-06-29T15:59:43.846Z,20.42
2023-06-29T16:02:10.529Z,20.44
2023-06-29T16:04:37.271Z,20.42
2023-06-29T16:07:07.618Z,20.28
2023-06-29T16:09:35.587Z,20.28
2023-06-29T16:12:02.274Z,20.31
2023-06-29T16:14:29.013Z,20.37
2023-06-29T16:16:55.950Z,20.48
2023-06-29T16:19:23.552Z,20.84
2023-06-29T16:21:50.292Z,21.20
2023-06-29T16:24:17.167Z,21.48
2023-06-29T16:26:44.725Z,21.76
2023-06-29T16:29:11.449Z,21.91
2023-06-29T16:31:38.266Z,21.99
2023-06-29T16:34:05.326Z,21.94
2023-06-29T16:36:32.595Z,21.75
2023-06-29T16:38:59.377Z,21.47
2023-06-29T16:41:26.056Z,21.24
2023-06-29T16:43:54.439Z,20.99
2023-06-29T16:46:21.412Z,20.93
2023-06-29T16:48:59.274Z,20.89
2023-06-29T16:51:29.007Z,20.92
2023-06-29T16:53:56.289Z,20.92
2023-06-29T16:56:23.035Z,21.11
2023-06-29T16:58:50.257Z,21.30
2023-06-29T17:01:17.088Z,21.47
2023-06-29T17:03:44.978Z,21.61
2023-06-29T17:06:11.997Z,21.85
2023-06-29T17:08:41.178Z,22.07
2023-06-29T17:11:08.481Z,22.24
2023-06-29T17:13:35.471Z,22.34
2023-06-29T17:16:02.638Z,22.34
2023-06-29T17:18:29.540Z,22.36
2023-06-29T17:20:56.234Z,22.24
2023-06-29T17:23:22.909Z,21.94
2023-06-29T17:25:51.756Z,21.82
2023-06-29T17:28:20.069Z,21.83
2023-06-29T17:30:46.985Z,21.73
2023-06-29T17:33:14.772Z,21.69
2023-06-29T17:35:41.571Z,21.53
2023-06-29T17:38:08.349Z,21.40
2023-06-29T17:40:35.066Z,21.40
2023-06-29T17:43:02.163Z,21.44
2023-06-29T17:45:29.031Z,21.57
2023-06-29T17:47:56.425Z,21.82
2023-06-29T17:50:23.417Z,22.05
2023-06-29T17:52:50.571Z,22.11
2023-06-29T17:55:18.430Z,22.02
2023-06-29T17:57:45.452Z,21.95
2023-06-29T18:00:13.943Z,21.78
2023-06-29T18:02:40.918Z,21.73
2023-06-29T18:05:08.999Z,21.70
2023-06-29T18:07:36.174Z,21.86
2023-06-29T18:10:07.695Z,21.96
2023-06-29T18:12:35.420Z,21.95
2023-06-29T18:15:02.520Z,21.87
2023-06-29T18:17:29.313Z,21.76
2023-06-29T18:19:56.250Z,21.72
2023-06-29T18:22:23.124Z,21.68
2023-06-29T18:24:49.918Z,21.61
2023-06-29T18:27:16.698Z,21.52
2023-06-29T18:29:43.920Z,21.37
2023-06-29T18:32:11.416Z,21.18
2023-06-29T18:34:38.178Z,20.99
2023-06-29T18:37:05.210Z,20.85
2023-06-29T18:39:31.964Z,20.72
2023-06-29T18:41:59.302Z,20.56
2023-06-29T18:44:26.150Z,20.43
2023-06-29T18:47:13.657Z,20.31
2023-06-29T18:49:51.431Z,20.21
2023-06-29T18:52:20.126Z,20.10
2023-06-29T18:54:46.971Z,20.01
2023-06-29T18:57:13.684Z,19.91
2023-06-29T18:59:40.484Z,19.86
2023-06-29T19:02:07.331Z,19.78
2023-06-29T19:04:34.729Z,19.72
2023-06-29T19:07:02.205Z,19.69
2023-06-29T19:09:29.852Z,19.63
2023-06-29T19:11:57.670Z,19.60
2023-06-29T19:14:25.023Z,19.65
2023-06-29T19:16:52.010Z,19.67
2023-06-29T19:19:18.765Z,19.71
2023-06-29T19:21:49.131Z,19.70
2023-06-29T19:24:17.677Z,19.66
2023-06-29T19:26:44.943Z,19.64
2023-06-29T19:29:12.972Z,19.53
2023-06-29T19:31:42.000Z,19.44
2023-06-29T19:34:10.339Z,19.39
2023-06-29T19:36:37.161Z,19.34
2023-06-29T19:39:03.948Z,19.27
2023-06-29T19:41:31.178Z,19.18
2023-06-29T19:43:57.829Z,19.13
2023-06-29T19:46:24.708Z,19.11
2023-06-29T19:48:51.417Z,19.08
2023-06-29T19:51:18.174Z,19.02
2023-06-29T19:53:45.522Z,19.00
2023-06-29T19:56:12.337Z,19.01
2023-06-29T19:58:39.099Z,19.04
2023-06-29T20:01:05.819Z,19.05
2023-06-29T20:03:32.692Z,19.02
2023-06-29T20:05:59.546Z,19.07
2023-06-29T20:08:26.336Z,18.96
2023-06-29T20:10:54.226Z,18.91
2023-06-29T20:13:20.948Z,18.87
2023-06-29T20:15:48.020Z,18.87
2023-06-29T20:18:15.049Z,18.78
2023-06-29T20:20:41.770Z,18.74
2023-06-29T20:23:10.386Z,18.66
2023-06-29T20:25:37.055Z,18.51
2023-06-29T20:28:03.862Z,18.44
2023-06-29T20:30:30.569Z,18.44
2023-06-29T20:32:57.368Z,18.38
2023-06-29T20:35:24.067Z,18.34
2023-06-29T20:37:50.739Z,18.27
2023-06-29T20:40:18.382Z,18.27
2023-06-29T20:42:45.041Z,18.27
2023-06-29T20:45:13.516Z,18.23
2023-06-29T20:47:41.073Z,18.17
2023-06-29T20:50:08.147Z,18.14
2023-06-29T20:52:34.802Z,18.11
2023-06-29T20:55:01.471Z,18.06
2023-06-29T20:57:28.345Z,18.03
2023-06-29T20:59:55.532Z,18.01
2023-06-29T21:02:22.429Z,17.97
2023-06-29T21:04:49.670Z,17.92
2023-06-29T21:07:16.644Z,17.88
2023-06-29T21:09:43.470Z,17.86
2023-06-29T21:12:10.966Z,17.81
2023-06-29T21:14:37.866Z,17.75
2023-06-29T21:17:04.870Z,17.74
2023-06-29T21:19:31.952Z,17.72
2023-06-29T21:21:59.167Z,17.73
2023-06-29T21:24:25.997Z,17.71
2023-06-29T21:26:53.631Z,17.68
2023-06-29T21:29:40.644Z,17.64
2023-06-29T21:32:11.185Z,17.62
2023-06-29T21:34:38.405Z,17.60
2023-06-29T21:37:05.737Z,17.59
2023-06-29T21:39:32.668Z,17.57
2023-06-29T21:41:59.421Z,17.52
2023-06-29T21:44:26.769Z,17.51
2023-06-29T21:46:53.520Z,17.50
2023-06-29T21:49:20.273Z,17.51
2023-06-29T21:51:47.174Z,17.50
2023-06-29T21:54:15.206Z,17.48
2023-06-29T21:56:42.258Z,17.42
2023-06-29T21:59:10.037Z,17.41
2023-06-29T22:01:37.087Z,17.41
2023-06-29T22:04:04.025Z,17.37
2023-06-29T22:06:30.910Z,17.38
2023-06-29T22:08:58.023Z,17.35
2023-06-29T22:11:27.846Z,17.34
2023-06-29T22:13:55.191Z,17.36
2023-06-29T22:16:23.723Z,17.37
2023-06-29T22:18:52.000Z,17.34
2023-06-29T22:21:22.301Z,17.33
2023-06-29T22:23:51.351Z,17.33
2023-06-29T22:26:18.647Z,17.33
2023-06-29T22:28:46.392Z,17.32
2023-06-29T22:31:15.423Z,17.33
2023-06-29T22:33:42.467Z,17.33
2023-06-29T22:36:09.458Z,17.36
2023-06-29T22:38:36.476Z,17.35
2023-06-29T22:41:05.670Z,17.35
2023-06-29T22:43:33.377Z,17.34
2023-06-29T22:46:01.243Z,17.34
2023-06-29T22:48:28.008Z,17.31
2023-06-29T22:50:56.858Z,17.31
2023-06-29T22:53:24.412Z,17.28
2023-06-29T22:55:51.143Z,17.27
2023-06-29T22:58:25.416Z,17.28
2023-06-29T23:00:56.031Z,17.27
2023-06-29T23:03:23.433Z,17.27
2023-06-29T23:05:52.828Z,17.25
2023-06-29T23:08:19.527Z,17.25
2023-06-29T23:10:50.392Z,17.25
2023-06-29T23:13:17.550Z,17.26
2023-06-29T23:15:46.243Z,17.25
2023-06-29T23:18:14.191Z,17.21
2023-06-29T23:20:47.741Z,17.16
2023-06-29T23:23:14.740Z,17.15
2023-06-29T23:25:42.719Z,17.12
2023-06-29T23:28:09.631Z,17.13
2023-06-29T23:30:36.755Z,17.12
2023-06-29T23:33:03.642Z,17.10
2023-06-29T23:35:30.355Z,17.06
2023-06-29T23:37:57.041Z,17.03
2023-06-29T23:40:23.776Z,17.01
2023-06-29T23:42:51.112Z,17.00
2023-06-29T23:45:17.987Z,17.00
2023-06-29T23:47:44.727Z,16.96
2023-06-29T23:50:14.103Z,16.94
2023-06-29T23:52:41.766Z,16.94
2023-06-29T23:55:10.515Z,16.95
2023-06-29T23:57:37.187Z,16.91
